Time;durP1;ratioP1;P1;durP2;ratioP2;P2;SDS_P1;SDS_P2;PMS_P1;PMS_P2;Temp;Humidity;BMP_temperature;BMP_pressure;BME280_temperature;BME280_humidity;BME280_pressure;Samples;Min_cycle;Max_cycle;Signal;HPM_P1;HPM_P2
2023/04/16 00:00:27;;;;;;;37.20;27.07;;;;;19.90;100845.00;;;;2080320;28;20246;-72
2023/04/16 00:01:27;;;;;;;36.83;26.87;;;;;19.90;100834.00;;;;2088568;28;20575;-72
2023/04/16 00:02:27;;;;;;;32.43;24.63;;;;;19.90;100839.00;;;;2088617;28;20266;-71
2023/04/16 00:03:28;;;;;;;30.53;24.07;;;;;19.90;100828.00;;;;2081218;28;20306;-71
2023/04/16 00:04:28;;;;;;;31.40;24.03;;;;;19.90;100838.00;;;;2080749;28;20213;-71
2023/04/16 00:05:28;;;;;;;32.90;25.00;;;;;19.90;100837.00;;;;2080661;28;20213;-71
2023/04/16 00:06:29;;;;;;;35.70;27.10;;;;;19.90;100832.00;;;;2079572;28;20689;-72
2023/04/16 00:07:29;;;;;;;31.30;23.90;;;;;19.90;100835.00;;;;2080263;28;20220;-71
2023/04/16 00:08:29;;;;;;;27.00;23.00;;;;;19.90;100844.00;;;;2079550;28;20411;-72
2023/04/16 00:09:30;;;;;;;28.90;23.87;;;;;19.90;100833.00;;;;2077880;28;20271;-71
2023/04/16 00:10:30;;;;;;;27.77;21.77;;;;;19.80;100835.00;;;;2079703;28;20230;-71
2023/04/16 00:11:30;;;;;;;29.93;22.87;;;;;19.80;100831.00;;;;2076560;28;20217;-71
2023/04/16 00:12:31;;;;;;;25.13;22.00;;;;;19.80;100785.00;;;;2079899;28;20263;-72
2023/04/16 00:13:31;;;;;;;25.20;20.73;;;;;19.90;100837.00;;;;2079304;28;20236;-72
2023/04/16 00:14:31;;;;;;;28.60;21.73;;;;;19.90;100829.00;;;;2077651;28;20225;-71
2023/04/16 00:15:32;;;;;;;25.47;20.23;;;;;19.80;100831.00;;;;2078565;28;20222;-71
2023/04/16 00:16:32;;;;;;;28.03;21.50;;;;;19.90;100829.00;;;;2078021;28;20581;-76
2023/04/16 00:17:32;;;;;;;27.20;21.60;;;;;19.90;100831.00;;;;2080231;28;20653;-68
2023/04/16 00:18:33;;;;;;;24.03;20.40;;;;;19.90;100845.00;;;;2079321;28;20582;-68
2023/04/16 00:19:33;;;;;;;25.83;19.97;;;;;20.00;100837.00;;;;2077726;28;20566;-69
2023/04/16 00:20:33;;;;;;;24.73;19.97;;;;;20.00;100836.00;;;;2079486;28;20685;-70
2023/04/16 00:21:34;;;;;;;22.37;19.67;;;;;20.00;100837.00;;;;2079969;28;20221;-70
2023/04/16 00:22:34;;;;;;;26.37;20.43;;;;;20.00;100848.00;;;;2079997;28;20222;-70
2023/04/16 00:23:35;;;;;;;22.40;17.83;;;;;20.00;100848.00;;;;2086903;28;20295;-70
2023/04/16 00:24:35;;;;;;;22.83;18.30;;;;;20.00;100847.00;;;;2087468;28;20239;-70
2023/04/16 00:25:36;;;;;;;24.43;19.27;;;;;19.90;100844.00;;;;2080219;28;20221;-70
2023/04/16 00:26:36;;;;;;;23.83;18.83;;;;;19.90;100844.00;;;;2080266;28;20738;-70
2023/04/16 00:27:36;;;;;;;22.50;17.87;;;;;19.90;100851.00;;;;2076616;28;20673;-69
2023/04/16 00:28:37;;;;;;;22.70;17.40;;;;;19.90;100851.00;;;;2076772;28;20225;-70
2023/04/16 00:29:37;;;;;;;24.40;17.30;;;;;19.90;100843.00;;;;2078725;28;20268;-70
2023/04/16 00:30:37;;;;;;;23.70;18.10;;;;;19.90;100836.00;;;;2080289;28;20218;-70
2023/04/16 00:31:38;;;;;;;27.33;17.67;;;;;19.90;100850.00;;;;2079832;28;20248;-70
2023/04/16 00:32:38;;;;;;;19.30;16.97;;;;;19.90;100844.00;;;;2078591;28;20217;-70
2023/04/16 00:33:39;;;;;;;21.90;17.77;;;;;19.90;100851.00;;;;2079723;28;20747;-70
2023/04/16 00:34:39;;;;;;;19.13;16.60;;;;;19.90;100850.00;;;;2081333;28;20217;-70
2023/04/16 00:35:39;;;;;;;19.80;16.03;;;;;19.80;100848.00;;;;2088664;28;20219;-70
2023/04/16 00:36:40;;;;;;;25.00;16.70;;;;;19.80;100845.00;;;;2086733;28;20216;-70
2023/04/16 00:37:40;;;;;;;19.97;15.90;;;;;19.80;100845.00;;;;2088421;28;20217;-70
2023/04/16 00:38:40;;;;;;;22.00;16.40;;;;;19.80;100852.00;;;;2088545;28;20217;-70
2023/04/16 00:39:41;;;;;;;20.77;16.00;;;;;19.80;100847.00;;;;2076806;28;20235;-70
2023/04/16 00:40:41;;;;;;;18.23;15.07;;;;;19.80;100847.00;;;;2080307;28;20217;-70
2023/04/16 00:41:42;;;;;;;20.50;15.60;;;;;19.80;100853.00;;;;2078896;28;20244;-70
2023/04/16 00:42:42;;;;;;;19.95;15.25;;;;;19.80;100839.00;;;;2080330;28;20229;-70
2023/04/16 00:43:43;;;;;;;21.10;16.23;;;;;19.80;100853.00;;;;2079819;28;20209;-70
2023/04/16 00:44:43;;;;;;;19.70;15.90;;;;;19.80;100847.00;;;;2087634;28;20264;-70
2023/04/16 00:45:43;;;;;;;19.17;14.70;;;;;19.80;100852.00;;;;2086099;28;20274;-70
2023/04/16 00:46:44;;;;;;;19.47;15.70;;;;;19.80;100844.00;;;;2080493;28;20202;-70
2023/04/16 00:47:44;;;;;;;16.20;13.40;;;;;19.80;100854.00;;;;2079616;28;20253;-70
2023/04/16 00:48:44;;;;;;;20.20;16.10;;;;;19.80;100849.00;;;;2081694;28;20201;-69
2023/04/16 00:49:45;;;;;;;17.37;14.07;;;;;19.80;100844.00;;;;2088348;28;20213;-70
2023/04/16 00:50:45;;;;;;;17.43;15.03;;;;;19.80;100846.00;;;;2085064;28;20344;-69
2023/04/16 00:51:46;;;;;;;16.33;14.50;;;;;19.80;100853.00;;;;2079124;28;20213;-70
2023/04/16 00:52:47;;;;;;;20.23;14.20;;;;;19.80;100855.00;;;;2080025;28;20222;-69
2023/04/16 00:53:47;;;;;;;15.90;14.18;;;;;19.80;100853.00;;;;2079354;28;20210;-70
2023/04/16 00:54:48;;;;;;;15.70;13.87;;;;;19.80;100858.00;;;;2080151;28;20297;-70
2023/04/16 00:55:48;;;;;;;17.83;15.47;;;;;19.80;100853.00;;;;2079424;28;20202;-69
2023/04/16 00:56:48;;;;;;;15.93;14.23;;;;;19.80;100853.00;;;;2079185;28;20249;-70
2023/04/16 00:57:49;;;;;;;18.57;15.23;;;;;19.80;100860.00;;;;2078744;28;20251;-70
2023/04/16 00:58:49;;;;;;;17.63;13.90;;;;;19.80;100856.00;;;;2079571;28;20285;-69
2023/04/16 00:59:50;;;;;;;15.70;13.77;;;;;19.80;100860.00;;;;2079745;28;21261;-70
2023/04/16 01:00:50;;;;;;;15.07;12.80;;;;;19.80;100865.00;;;;2085100;28;20225;-69
2023/04/16 01:01:50;;;;;;;14.20;12.70;;;;;19.80;100860.00;;;;2087975;28;20465;-70
2023/04/16 01:02:52;;;;;;;15.10;13.13;;;;;19.80;100861.00;;;;2085458;28;20212;-70
2023/04/16 01:03:52;;;;;;;17.88;14.20;;;;;19.80;100857.00;;;;2088311;28;20663;-70
2023/04/16 01:04:52;;;;;;;16.83;14.10;;;;;19.80;100864.00;;;;2075777;28;20229;-69
2023/04/16 01:05:53;;;;;;;16.03;14.07;;;;;19.80;100865.00;;;;2071181;28;20617;-70
2023/04/16 01:06:53;;;;;;;14.27;12.77;;;;;19.80;100860.00;;;;2072777;28;20647;-69
2023/04/16 01:07:57;;;;;;;15.97;13.90;;;;;19.80;100864.00;;;;2084878;28;20595;-70
2023/04/16 01:08:57;;;;;;;14.65;13.15;;;;;19.80;100851.00;;;;2087580;28;20221;-70
2023/04/16 01:09:58;;;;;;;15.90;12.90;;;;;19.70;100852.00;;;;2084352;28;20213;-70
2023/04/16 01:10:58;;;;;;;14.70;12.70;;;;;19.70;100858.00;;;;2087929;28;20216;-70
2023/04/16 01:11:58;;;;;;;16.53;13.40;;;;;19.70;100853.00;;;;2084757;28;20673;-70
2023/04/16 01:12:59;;;;;;;14.13;12.00;;;;;19.80;100859.00;;;;2079208;28;20764;-70
2023/04/16 01:13:59;;;;;;;15.40;13.53;;;;;19.80;100858.00;;;;2079262;28;20708;-70
2023/04/16 01:15:00;;;;;;;16.63;13.63;;;;;19.80;100844.00;;;;2079192;28;20596;-69
2023/04/16 01:16:00;;;;;;;13.73;12.27;;;;;19.80;100843.00;;;;2079889;28;20213;-70
2023/04/16 01:17:01;;;;;;;14.07;12.53;;;;;19.80;100856.00;;;;2081436;28;20266;-69
2023/04/16 01:18:02;;;;;;;14.43;12.00;;;;;19.70;100854.00;;;;2087591;28;20713;-70
2023/04/16 01:19:02;;;;;;;14.93;13.20;;;;;19.70;100863.00;;;;2085893;28;20205;-69
2023/04/16 01:20:03;;;;;;;14.17;12.50;;;;;19.80;100862.00;;;;2088028;28;20229;-69
2023/04/16 01:21:03;;;;;;;14.07;12.33;;;;;19.80;100865.00;;;;2088158;28;20205;-69
2023/04/16 01:22:04;;;;;;;13.77;12.10;;;;;19.80;100856.00;;;;2079118;28;20240;-69
2023/04/16 01:23:04;;;;;;;14.53;12.10;;;;;19.70;100872.00;;;;2079438;28;20684;-69
2023/04/16 01:24:04;;;;;;;14.73;12.33;;;;;19.70;100865.00;;;;2078536;28;20708;-70
2023/04/16 01:25:05;;;;;;;14.40;11.57;;;;;19.70;100868.00;;;;2079669;28;20213;-70
2023/04/16 01:26:05;;;;;;;15.00;11.83;;;;;19.70;100869.00;;;;2079192;28;20427;-69
2023/04/16 01:27:06;;;;;;;12.70;11.10;;;;;19.70;100869.00;;;;2079779;28;20626;-69
2023/04/16 01:28:06;;;;;;;14.10;11.90;;;;;19.70;100874.00;;;;2079550;28;20221;-69
2023/04/16 01:29:06;;;;;;;13.20;11.20;;;;;19.70;100870.00;;;;2083980;28;20293;-69
2023/04/16 01:30:07;;;;;;;14.23;11.20;;;;;19.70;100870.00;;;;2088015;28;20208;-70
2023/04/16 01:31:07;;;;;;;13.80;12.33;;;;;19.70;100874.00;;;;2083738;28;20221;-69
2023/04/16 01:32:07;;;;;;;12.60;11.30;;;;;19.70;100875.00;;;;2079346;28;20220;-68
2023/04/16 01:33:09;;;;;;;13.13;11.40;;;;;19.70;100870.00;;;;2079385;28;20206;-70
2023/04/16 01:34:10;;;;;;;12.55;11.20;;;;;19.70;100877.00;;;;2079693;28;20256;-69
2023/04/16 01:35:10;;;;;;;13.50;12.10;;;;;19.70;100863.00;;;;2079816;28;20868;-69
2023/04/16 01:36:10;;;;;;;12.40;10.77;;;;;19.70;100871.00;;;;2084239;28;20625;-70
2023/04/16 01:37:11;;;;;;;11.90;10.63;;;;;19.60;100869.00;;;;2087975;28;21011;-69
2023/04/16 01:38:11;;;;;;;14.00;11.10;;;;;19.70;100867.00;;;;2082927;28;20218;-69
2023/04/16 01:39:14;;;;;;;13.83;11.70;;;;;19.70;100864.00;;;;2079802;28;20205;-69
2023/04/16 01:40:14;;;;;;;13.65;10.75;;;;;19.70;100868.00;;;;2078676;28;20217;-70
2023/04/16 01:41:15;;;;;;;12.50;10.60;;;;;19.70;100863.00;;;;2079729;28;20205;-69
2023/04/16 01:42:15;;;;;;;12.00;10.80;;;;;19.70;100873.00;;;;2079491;28;20209;-70
2023/04/16 01:43:16;;;;;;;12.20;11.03;;;;;19.70;100870.00;;;;2078748;28;20210;-69
2023/04/16 01:44:16;;;;;;;12.60;11.30;;;;;19.70;100872.00;;;;2079578;28;20209;-69
2023/04/16 01:45:16;;;;;;;11.33;10.17;;;;;19.70;100871.00;;;;2078890;28;20213;-70
2023/04/16 01:46:19;;;;;;;11.90;10.60;;;;;19.60;100868.00;;;;2079416;28;20209;-70
2023/04/16 01:47:19;;;;;;;11.60;10.40;;;;;19.60;100873.00;;;;2078036;28;20212;-69
2023/04/16 01:48:19;;;;;;;11.80;10.60;;;;;19.70;100865.00;;;;2079133;28;20604;-70
2023/04/16 01:49:20;;;;;;;16.10;12.53;;;;;19.70;100869.00;;;;2070739;28;20686;-70
2023/04/16 01:50:20;;;;;;;12.07;10.87;;;;;19.70;100874.00;;;;2076012;28;20701;-70
2023/04/16 01:51:20;;;;;;;13.63;11.87;;;;;19.70;100862.00;;;;2087853;28;20696;-70
2023/04/16 01:52:21;;;;;;;13.73;11.50;;;;;19.70;100865.00;;;;2082178;28;20228;-70
2023/04/16 01:53:22;;;;;;;14.50;10.77;;;;;19.60;100866.00;;;;2079752;28;20324;-69
2023/04/16 01:54:22;;;;;;;13.07;10.75;;;;;19.70;100872.00;;;;2078625;28;20271;-69
2023/04/16 01:55:23;;;;;;;12.40;11.10;;;;;19.70;100872.00;;;;2079678;28;20625;-70
2023/04/16 01:56:23;;;;;;;12.27;10.97;;;;;19.70;100864.00;;;;2079657;28;20565;-69
2023/04/16 01:57:23;;;;;;;11.33;10.13;;;;;19.70;100865.00;;;;2079034;28;20213;-69
2023/04/16 01:58:24;;;;;;;14.10;10.57;;;;;19.70;100861.00;;;;2079740;28;20279;-70
2023/04/16 01:59:24;;;;;;;13.10;10.70;;;;;19.60;100871.00;;;;2079484;28;20206;-70
2023/04/16 02:00:24;;;;;;;11.73;10.53;;;;;19.60;100874.00;;;;2079437;28;20217;-70
2023/04/16 02:01:25;;;;;;;11.37;10.27;;;;;19.70;100869.00;;;;2078697;28;20232;-70
2023/04/16 02:02:27;;;;;;;11.70;10.50;;;;;19.60;100867.00;;;;2079380;28;20260;-69
2023/04/16 02:03:28;;;;;;;12.45;10.55;;;;;19.60;100875.00;;;;2079613;28;20214;-70
2023/04/16 02:04:28;;;;;;;12.20;10.80;;;;;19.60;100875.00;;;;2079173;28;20217;-70
2023/04/16 02:05:28;;;;;;;11.73;10.33;;;;;19.60;100876.00;;;;2079436;28;20264;-70
2023/04/16 02:06:30;;;;;;;11.37;10.27;;;;;19.60;100871.00;;;;2078145;28;20233;-70
2023/04/16 02:07:30;;;;;;;13.10;11.07;;;;;19.60;100868.00;;;;2079601;28;20248;-70
2023/04/16 02:08:31;;;;;;;11.47;9.93;;;;;19.60;100870.00;;;;2079586;28;20275;-69
2023/04/16 02:09:33;;;;;;;11.77;10.57;;;;;19.60;100869.00;;;;2086969;28;20634;-69
2023/04/16 02:10:33;;;;;;;13.18;10.90;;;;;19.60;100870.00;;;;2087673;28;20256;-69
2023/04/16 02:11:34;;;;;;;11.17;9.90;;;;;19.60;100867.00;;;;2078498;28;20214;-69
2023/04/16 02:12:34;;;;;;;11.17;10.00;;;;;19.60;100859.00;;;;2078837;28;20225;-69
2023/04/16 02:13:35;;;;;;;11.50;9.80;;;;;19.60;100862.00;;;;2078209;28;20217;-70
2023/04/16 02:14:35;;;;;;;11.23;10.13;;;;;19.60;100869.00;;;;2079452;28;20728;-69
2023/04/16 02:15:35;;;;;;;13.83;11.00;;;;;19.60;100858.00;;;;2078792;28;20758;-70
2023/04/16 02:16:36;;;;;;;13.07;9.87;;;;;19.60;100859.00;;;;2079314;28;20729;-70
2023/04/16 02:17:36;;;;;;;11.67;10.47;;;;;19.60;100856.00;;;;2079374;28;20693;-70
2023/04/16 02:18:36;;;;;;;11.37;10.17;;;;;19.60;100865.00;;;;2078703;28;20735;-70
2023/04/16 02:19:37;;;;;;;12.30;10.20;;;;;19.60;100856.00;;;;2079545;28;20696;-70
2023/04/16 02:20:41;;;;;;;12.27;10.20;;;;;19.60;100859.00;;;;2079577;28;20205;-69
2023/04/16 02:21:41;;;;;;;11.82;10.52;;;;;19.60;100859.00;;;;2078435;28;20213;-70
2023/04/16 02:22:42;;;;;;;11.80;10.13;;;;;19.60;100857.00;;;;2078001;28;20214;-69
2023/04/16 02:23:46;;;;;;;11.50;10.00;;;;;19.60;100863.00;;;;2079348;28;20233;-70
2023/04/16 02:24:46;;;;;;;12.60;10.85;;;;;19.60;100863.00;;;;2079601;28;20758;-70
2023/04/16 02:25:47;;;;;;;11.30;10.10;;;;;19.60;100860.00;;;;2078813;28;20209;-69
2023/04/16 02:26:47;;;;;;;11.37;9.77;;;;;19.60;100865.00;;;;2079523;28;20232;-70
2023/04/16 02:27:47;;;;;;;14.10;10.40;;;;;19.60;100863.00;;;;2078883;28;20347;-70
2023/04/16 02:28:47;;;;;;;15.70;9.90;;;;;19.60;100863.00;;;;2079412;28;20218;-70
2023/04/16 02:29:48;;;;;;;13.00;10.90;;;;;19.60;100860.00;;;;2078763;28;20220;-69
2023/04/16 02:30:48;;;;;;;12.33;10.03;;;;;19.60;100860.00;;;;2087715;28;20221;-69
2023/04/16 02:31:48;;;;;;;11.30;10.20;;;;;19.60;100866.00;;;;2087470;28;20231;-69
2023/04/16 02:32:49;;;;;;;12.43;9.70;;;;;19.60;100873.00;;;;2085088;28;20212;-70
2023/04/16 02:33:49;;;;;;;11.00;9.80;;;;;19.60;100863.00;;;;2087625;28;20209;-70
2023/04/16 02:34:50;;;;;;;12.80;10.70;;;;;19.60;100866.00;;;;2083488;28;20237;-70
2023/04/16 02:35:50;;;;;;;11.40;10.10;;;;;19.60;100859.00;;;;2079533;28;20213;-70
2023/04/16 02:36:50;;;;;;;11.13;9.80;;;;;19.60;100873.00;;;;2078808;28;20248;-69
2023/04/16 02:37:51;;;;;;;12.20;10.07;;;;;19.60;100885.00;;;;2079155;28;20305;-70
2023/04/16 02:38:51;;;;;;;11.93;9.70;;;;;19.60;100869.00;;;;2079311;28;20631;-70
2023/04/16 02:39:52;;;;;;;11.67;10.17;;;;;19.60;100869.00;;;;2078066;28;20230;-69
2023/04/16 02:40:52;;;;;;;11.67;10.30;;;;;19.60;100862.00;;;;2079439;28;20256;-69
2023/04/16 02:41:53;;;;;;;13.20;10.90;;;;;19.60;100874.00;;;;2078432;28;20243;-69
2023/04/16 02:42:53;;;;;;;10.60;9.50;;;;;19.60;100868.00;;;;2079359;28;20209;-70
2023/04/16 02:43:54;;;;;;;11.60;10.37;;;;;19.60;100878.00;;;;2077625;28;20227;-69
2023/04/16 02:44:54;;;;;;;10.77;9.77;;;;;19.60;100872.00;;;;2079263;28;20232;-69
2023/04/16 02:45:54;;;;;;;11.70;10.17;;;;;19.60;100869.00;;;;2079536;28;20682;-69
2023/04/16 02:46:55;;;;;;;12.60;10.83;;;;;19.60;100871.00;;;;2078497;28;20217;-69
2023/04/16 02:47:55;;;;;;;11.40;10.03;;;;;19.60;100865.00;;;;2079514;28;20221;-69
2023/04/16 02:48:55;;;;;;;10.97;9.70;;;;;19.60;100862.00;;;;2078650;28;20282;-69
2023/04/16 02:49:55;;;;;;;11.50;10.37;;;;;19.60;100869.00;;;;2079230;28;20221;-69
2023/04/16 02:50:56;;;;;;;10.70;9.70;;;;;19.60;100859.00;;;;2078643;28;20228;-69
2023/04/16 02:51:56;;;;;;;13.37;10.60;;;;;19.60;100868.00;;;;2078982;28;20224;-70
2023/04/16 02:52:57;;;;;;;10.70;9.63;;;;;19.60;100866.00;;;;2079141;28;20232;-70
2023/04/16 02:53:57;;;;;;;11.97;9.80;;;;;19.60;100863.00;;;;2083764;28;20223;-70
2023/04/16 02:54:57;;;;;;;11.50;9.73;;;;;19.60;100877.00;;;;2087604;28;20205;-69
2023/04/16 02:55:57;;;;;;;11.10;9.97;;;;;19.50;100873.00;;;;2082944;28;20224;-69
2023/04/16 02:56:58;;;;;;;11.00;10.00;;;;;19.60;100877.00;;;;2079425;28;20221;-69
2023/04/16 02:57:58;;;;;;;10.97;9.87;;;;;19.60;100873.00;;;;2078503;28;20220;-70
2023/04/16 02:58:58;;;;;;;10.20;9.20;;;;;19.60;100872.00;;;;2087216;28;20213;-69
2023/04/16 02:59:59;;;;;;;10.90;9.80;;;;;19.60;100877.00;;;;2085020;28;20216;-69
2023/04/16 03:00:59;;;;;;;10.63;9.63;;;;;19.60;100871.00;;;;2086150;28;20208;-69
2023/04/16 03:01:59;;;;;;;10.93;9.73;;;;;19.60;100875.00;;;;2087343;28;20217;-69
2023/04/16 03:03:00;;;;;;;11.20;9.67;;;;;19.60;100878.00;;;;2087553;28;20291;-69
2023/04/16 03:04:00;;;;;;;10.10;9.10;;;;;19.60;100880.00;;;;2084848;28;20213;-70
2023/04/16 03:05:01;;;;;;;10.20;9.20;;;;;19.50;100865.00;;;;2070515;28;20697;-69
2023/04/16 03:06:02;;;;;;;11.55;10.45;;;;;19.60;100873.00;;;;2075385;28;20213;-69
2023/04/16 03:07:02;;;;;;;12.83;10.57;;;;;19.50;100869.00;;;;2077881;28;20296;-69
2023/04/16 03:08:03;;;;;;;12.03;9.90;;;;;19.50;100867.00;;;;2078567;28;20233;-69
2023/04/16 03:09:03;;;;;;;10.60;9.50;;;;;19.60;100867.00;;;;2077797;28;20309;-69
2023/04/16 03:10:05;;;;;;;10.60;9.40;;;;;19.60;100870.00;;;;2076651;28;20680;-69
2023/04/16 03:11:06;;;;;;;12.85;10.27;;;;;19.60;100870.00;;;;2078554;28;20297;-69
2023/04/16 03:12:06;;;;;;;10.87;9.87;;;;;19.50;100870.00;;;;2079046;28;20901;-69
2023/04/16 03:13:07;;;;;;;11.27;9.37;;;;;19.50;100873.00;;;;2077091;28;20530;-70
2023/04/16 03:14:07;;;;;;;11.40;10.30;;;;;19.50;100868.00;;;;2077697;28;20209;-69
2023/04/16 03:15:08;;;;;;;10.70;9.70;;;;;19.50;100874.00;;;;2079234;28;20217;-70
2023/04/16 03:16:08;;;;;;;11.07;9.97;;;;;19.50;100878.00;;;;2078598;28;20205;-69
2023/04/16 03:17:08;;;;;;;11.40;10.30;;;;;19.50;100876.00;;;;2079149;28;20229;-69
2023/04/16 03:18:09;;;;;;;10.43;9.20;;;;;19.50;100881.00;;;;2078481;28;20264;-69
2023/04/16 03:19:09;;;;;;;11.43;10.07;;;;;19.50;100879.00;;;;2079319;28;20225;-69
2023/04/16 03:20:10;;;;;;;10.00;9.00;;;;;19.50;100874.00;;;;2079457;28;21170;-69
2023/04/16 03:21:10;;;;;;;11.30;10.13;;;;;19.50;100886.00;;;;2078196;28;20245;-69
2023/04/16 03:22:10;;;;;;;11.20;9.80;;;;;19.50;100878.00;;;;2079059;28;21091;-69
2023/04/16 03:23:11;;;;;;;9.83;8.93;;;;;19.50;100886.00;;;;2081544;28;20239;-69
2023/04/16 03:24:12;;;;;;;11.10;10.00;;;;;19.50;100879.00;;;;2089159;28;20856;-70
2023/04/16 03:25:12;;;;;;;10.57;9.50;;;;;19.50;100886.00;;;;2086091;28;20335;-70
2023/04/16 03:26:13;;;;;;;11.07;9.90;;;;;19.50;100878.00;;;;2080801;28;20256;-70
2023/04/16 03:27:13;;;;;;;11.37;10.17;;;;;19.50;100883.00;;;;2080835;28;20229;-69
2023/04/16 03:28:13;;;;;;;11.30;10.20;;;;;19.50;100878.00;;;;2086513;28;20201;-70
2023/04/16 03:29:14;;;;;;;11.43;9.80;;;;;19.50;100880.00;;;;2089028;28;20234;-70
2023/04/16 03:30:15;;;;;;;11.40;10.20;;;;;19.50;100878.00;;;;2083182;28;20756;-69
2023/04/16 03:31:15;;;;;;;10.27;9.27;;;;;19.50;100882.00;;;;2080800;28;20305;-69
2023/04/16 03:32:16;;;;;;;11.30;10.20;;;;;19.50;100884.00;;;;2079953;28;20448;-70
2023/04/16 03:33:16;;;;;;;13.13;10.00;;;;;19.50;100883.00;;;;2080808;28;20221;-69
2023/04/16 03:34:16;;;;;;;11.50;9.77;;;;;19.50;100880.00;;;;2080653;28;20224;-69
2023/04/16 03:35:17;;;;;;;11.40;10.30;;;;;19.50;100887.00;;;;2079714;28;20228;-69
2023/04/16 03:36:17;;;;;;;11.90;10.07;;;;;19.50;100889.00;;;;2080846;28;20218;-70
2023/04/16 03:37:18;;;;;;;10.53;9.47;;;;;19.50;100886.00;;;;2083388;28;20224;-69
2023/04/16 03:38:18;;;;;;;11.37;9.67;;;;;19.50;100887.00;;;;2087159;28;20255;-69
2023/04/16 03:39:18;;;;;;;12.00;10.80;;;;;19.50;100884.00;;;;2085148;28;20210;-69
2023/04/16 03:40:19;;;;;;;10.47;9.37;;;;;19.50;100880.00;;;;2080631;28;20221;-69
2023/04/16 03:41:20;;;;;;;10.80;9.70;;;;;19.50;100885.00;;;;2080567;28;20738;-70
2023/04/16 03:42:20;;;;;;;11.77;10.10;;;;;19.50;100889.00;;;;2078942;28;20304;-69
2023/04/16 03:43:21;;;;;;;12.70;10.40;;;;;19.50;100892.00;;;;2080102;28;20209;-69
2023/04/16 03:44:21;;;;;;;12.63;10.20;;;;;19.50;100886.00;;;;2079759;28;20238;-69
2023/04/16 03:45:21;;;;;;;10.90;9.60;;;;;19.40;100885.00;;;;2080717;28;20217;-70
2023/04/16 03:46:22;;;;;;;10.93;9.70;;;;;19.50;100892.00;;;;2079989;28;20248;-70
2023/04/16 03:47:22;;;;;;;11.27;10.17;;;;;19.50;100894.00;;;;2080806;28;20260;-69
2023/04/16 03:48:22;;;;;;;11.63;9.87;;;;;19.50;100884.00;;;;2079825;28;20241;-69
2023/04/16 03:49:23;;;;;;;11.60;10.40;;;;;19.50;100878.00;;;;2079312;28;20283;-69
2023/04/16 03:50:23;;;;;;;11.50;10.23;;;;;19.50;100887.00;;;;2080491;28;20226;-69
2023/04/16 03:51:23;;;;;;;10.27;9.20;;;;;19.50;100885.00;;;;2079976;28;20583;-69
2023/04/16 03:52:24;;;;;;;10.97;9.87;;;;;19.50;100885.00;;;;2079384;28;21010;-70
2023/04/16 03:53:24;;;;;;;11.30;9.80;;;;;19.40;100886.00;;;;2079832;28;20244;-70
2023/04/16 03:54:25;;;;;;;10.97;9.87;;;;;19.50;100888.00;;;;2080636;28;20210;-69
2023/04/16 03:55:25;;;;;;;10.50;9.50;;;;;19.40;100860.00;;;;2079606;28;20213;-69
2023/04/16 03:56:26;;;;;;;10.60;9.60;;;;;19.40;100885.00;;;;2078300;28;20444;-70
2023/04/16 03:57:26;;;;;;;11.33;9.90;;;;;19.40;100884.00;;;;2080683;28;20229;-70
2023/04/16 03:58:26;;;;;;;11.37;9.30;;;;;19.50;100887.00;;;;2083636;28;20217;-70
2023/04/16 03:59:27;;;;;;;11.00;9.90;;;;;19.50;100891.00;;;;2088808;28;20212;-70
2023/04/16 04:00:27;;;;;;;11.67;9.87;;;;;19.50;100887.00;;;;2088771;28;20228;-70
2023/04/16 04:01:28;;;;;;;10.43;9.30;;;;;19.50;100885.00;;;;2087357;28;20279;-70
2023/04/16 04:02:28;;;;;;;11.03;10.03;;;;;19.50;100890.00;;;;2088686;28;20213;-70
2023/04/16 04:03:28;;;;;;;10.67;9.43;;;;;19.40;100888.00;;;;2088790;28;20213;-70
2023/04/16 04:04:29;;;;;;;9.57;8.67;;;;;19.50;100886.00;;;;2086250;28;20212;-70
2023/04/16 04:05:29;;;;;;;11.13;10.03;;;;;19.40;100883.00;;;;2088851;28;20209;-70
2023/04/16 04:06:29;;;;;;;10.63;9.53;;;;;19.40;100897.00;;;;2085284;28;20249;-70
2023/04/16 04:07:30;;;;;;;11.23;10.00;;;;;19.40;100886.00;;;;2080484;28;20214;-69
2023/04/16 04:08:31;;;;;;;11.47;10.27;;;;;19.40;100889.00;;;;2080659;28;20224;-70
2023/04/16 04:09:32;;;;;;;12.37;11.07;;;;;19.40;100892.00;;;;2079283;28;20218;-69
2023/04/16 04:10:33;;;;;;;11.00;9.75;;;;;19.40;100888.00;;;;2080441;28;20308;-70
2023/04/16 04:11:34;;;;;;;10.57;9.47;;;;;19.40;100892.00;;;;2078658;28;20222;-70
2023/04/16 04:12:34;;;;;;;11.63;10.43;;;;;19.40;100892.00;;;;2079282;28;20460;-69
2023/04/16 04:13:34;;;;;;;11.40;10.20;;;;;19.40;100897.00;;;;2079559;28;20643;-69
2023/04/16 04:14:38;;;;;;;11.57;10.40;;;;;19.40;100888.00;;;;2080368;28;20836;-69
2023/04/16 04:15:39;;;;;;;10.98;9.98;;;;;19.40;100889.00;;;;2080481;28;20215;-69
2023/04/16 04:16:39;;;;;;;11.83;9.90;;;;;19.40;100897.00;;;;2079831;28;20623;-70
2023/04/16 04:17:40;;;;;;;10.60;9.60;;;;;19.40;100887.00;;;;2080266;28;20218;-70
2023/04/16 04:18:40;;;;;;;12.03;10.73;;;;;19.40;100889.00;;;;2084100;28;20258;-69
2023/04/16 04:19:40;;;;;;;11.03;9.80;;;;;19.40;100899.00;;;;2088491;28;20217;-69
2023/04/16 04:20:41;;;;;;;11.70;9.97;;;;;19.40;100895.00;;;;2086230;28;20208;-70
2023/04/16 04:21:41;;;;;;;10.30;9.30;;;;;19.40;100902.00;;;;2088419;28;20236;-69
2023/04/16 04:22:41;;;;;;;11.07;9.97;;;;;19.40;100900.00;;;;2087918;28;20212;-69
2023/04/16 04:23:42;;;;;;;12.00;10.33;;;;;19.40;100898.00;;;;2079640;28;20240;-70
2023/04/16 04:24:42;;;;;;;12.77;10.20;;;;;19.40;100903.00;;;;2080337;28;20217;-69
2023/04/16 04:25:43;;;;;;;12.13;10.80;;;;;19.40;100901.00;;;;2079487;28;20440;-69
2023/04/16 04:26:43;;;;;;;11.37;10.23;;;;;19.40;100906.00;;;;2080374;28;20216;-69
2023/04/16 04:27:43;;;;;;;12.57;11.43;;;;;19.40;100900.00;;;;2079531;28;22089;-69
2023/04/16 04:28:44;;;;;;;12.00;10.20;;;;;19.40;100907.00;;;;2080329;28;20295;-69
2023/04/16 04:29:45;;;;;;;12.73;10.97;;;;;19.40;100905.00;;;;2079830;28;20217;-66
2023/04/16 04:30:45;;;;;;;11.30;9.60;;;;;19.40;100903.00;;;;2078632;28;20249;-70
2023/04/16 04:31:45;;;;;;;11.63;10.43;;;;;19.40;100901.00;;;;2080093;28;20237;-69
2023/04/16 04:32:46;;;;;;;11.00;9.90;;;;;19.40;100916.00;;;;2083966;28;20204;-69
2023/04/16 04:33:46;;;;;;;16.10;12.57;;;;;19.30;100904.00;;;;2087757;28;20213;-69
2023/04/16 04:34:46;;;;;;;15.20;12.53;;;;;19.30;100912.00;;;;2083723;28;20221;-69
2023/04/16 04:35:47;;;;;;;16.03;12.87;;;;;19.30;100907.00;;;;2079802;28;20202;-70
2023/04/16 04:36:47;;;;;;;13.57;12.10;;;;;19.30;100913.00;;;;2079572;28;20213;-69
2023/04/16 04:37:47;;;;;;;14.87;12.73;;;;;19.30;100913.00;;;;2080161;28;20237;-69
2023/04/16 04:38:47;;;;;;;14.50;13.00;;;;;19.30;100916.00;;;;2080299;28;20271;-69
2023/04/16 04:39:48;;;;;;;14.73;13.00;;;;;19.30;100916.00;;;;2084030;28;20212;-69
2023/04/16 04:40:48;;;;;;;13.60;12.30;;;;;19.20;100913.00;;;;2088434;28;20209;-69
2023/04/16 04:41:48;;;;;;;14.93;12.50;;;;;19.20;100915.00;;;;2083523;28;20233;-69
2023/04/16 04:42:49;;;;;;;15.67;12.60;;;;;19.20;100916.00;;;;2080291;28;20233;-69
2023/04/16 04:43:49;;;;;;;13.60;12.17;;;;;19.20;100907.00;;;;2079713;28;20213;-69
2023/04/16 04:44:50;;;;;;;17.00;13.13;;;;;19.20;100920.00;;;;2080066;28;20224;-70
2023/04/16 04:45:50;;;;;;;14.57;12.80;;;;;19.20;100922.00;;;;2080207;28;20240;-69
2023/04/16 04:46:50;;;;;;;13.20;11.73;;;;;19.20;100918.00;;;;2079352;28;20308;-69
2023/04/16 04:47:53;;;;;;;14.10;12.23;;;;;19.20;100921.00;;;;2079557;28;20285;-69
2023/04/16 04:48:53;;;;;;;14.73;12.50;;;;;19.20;100918.00;;;;2081157;28;20221;-69
2023/04/16 04:49:54;;;;;;;15.23;12.30;;;;;19.20;100921.00;;;;2088455;28;20223;-69
2023/04/16 04:50:54;;;;;;;14.37;12.70;;;;;19.20;100925.00;;;;2086026;28;20239;-69
2023/04/16 04:51:54;;;;;;;15.20;13.20;;;;;19.20;100921.00;;;;2080045;28;20225;-69
2023/04/16 04:52:55;;;;;;;14.10;12.53;;;;;19.10;100918.00;;;;2080248;28;20229;-69